createdAt,value
2022-08-11T00:01:14.639Z,46.80
2022-08-11T00:03:50.002Z,46.70
2022-08-11T00:06:27.321Z,46.50
2022-08-11T00:08:57.231Z,46.60
2022-08-11T00:11:35.531Z,46.60
2022-08-11T00:14:05.715Z,46.50
2022-08-11T00:16:35.077Z,46.30
2022-08-11T00:19:06.656Z,45.80
2022-08-11T00:22:04.268Z,46.00
2022-08-11T00:24:53.290Z,45.90
2022-08-11T00:27:34.203Z,45.80
2022-08-11T00:32:36.772Z,45.90
2022-08-11T00:35:55.547Z,46.30
2022-08-11T00:37:58.566Z,45.70
2022-08-11T00:40:34.983Z,46.30
2022-08-11T00:43:20.526Z,45.80
2022-08-11T00:46:10.471Z,45.90
2022-08-11T00:48:47.019Z,46.20
2022-08-11T00:51:25.063Z,46.70
2022-08-11T00:54:07.158Z,45.80
2022-08-11T00:57:37.046Z,45.80
2022-08-11T01:00:15.337Z,46.50
2022-08-11T01:03:02.544Z,46.60
2022-08-11T01:05:52.657Z,46.10
2022-08-11T01:08:53.874Z,46.20
2022-08-11T01:11:55.452Z,46.80
2022-08-11T01:15:00.939Z,46.40
2022-08-11T01:18:10.467Z,47.00
2022-08-11T01:21:18.214Z,46.90
2022-08-11T01:24:48.313Z,47.10
2022-08-11T01:27:46.817Z,47.10
2022-08-11T01:30:50.173Z,47.30
2022-08-11T01:33:53.801Z,47.30
2022-08-11T01:37:02.568Z,46.80
2022-08-11T01:40:12.876Z,46.70
2022-08-11T01:43:37.752Z,46.70
2022-08-11T01:46:12.882Z,47.40
2022-08-11T01:48:46.407Z,47.00
2022-08-11T01:51:30.268Z,47.70
2022-08-11T01:54:06.103Z,47.80
2022-08-11T01:56:41.655Z,47.80
2022-08-11T01:59:18.614Z,47.80
2022-08-11T02:02:46.290Z,48.50
2022-08-11T02:06:00.448Z,48.40
2022-08-11T02:08:50.583Z,49.00
2022-08-11T02:11:35.188Z,49.30
2022-08-11T02:14:21.068Z,48.90
2022-08-11T02:16:57.029Z,49.00
2022-08-11T02:19:52.749Z,49.10
2022-08-11T02:22:49.102Z,49.40
2022-08-11T02:25:25.234Z,49.40
2022-08-11T02:28:03.490Z,49.60
2022-08-11T02:30:38.801Z,49.50
2022-08-11T02:33:25.610Z,49.20
2022-08-11T02:36:06.501Z,49.70
2022-08-11T02:38:43.555Z,49.90
2022-08-11T02:41:30.506Z,49.70
2022-08-11T02:44:26.131Z,50.20
2022-08-11T02:47:04.218Z,49.60
2022-08-11T02:50:02.750Z,49.80
2022-08-11T02:52:45.631Z,49.70
2022-08-11T02:55:48.691Z,50.40
2022-08-11T02:58:15.826Z,49.80
2022-08-11T03:00:51.552Z,50.40
2022-08-11T03:03:26.763Z,50.40
2022-08-11T03:06:06.126Z,50.40
2022-08-11T03:08:52.950Z,50.40
2022-08-11T03:12:01.306Z,50.60
2022-08-11T03:14:53.663Z,50.70
2022-08-11T03:17:30.046Z,50.30
2022-08-11T03:20:13.251Z,50.80
2022-08-11T03:22:52.469Z,51.00
2022-08-11T03:25:31.659Z,50.30
2022-08-11T03:28:06.535Z,50.40
2022-08-11T03:30:44.892Z,50.50
2022-08-11T03:33:41.656Z,50.90
2022-08-11T03:36:29.526Z,51.50
2022-08-11T03:39:13.389Z,50.50
2022-08-11T03:42:03.542Z,51.00
2022-08-11T03:45:01.435Z,50.60
2022-08-11T03:47:53.428Z,50.70
2022-08-11T03:54:19.430Z,50.60
2022-08-11T03:57:37.795Z,51.10
2022-08-11T04:00:41.203Z,51.10
2022-08-11T04:03:49.390Z,51.10
2022-08-11T04:06:54.555Z,51.10
2022-08-11T04:10:07.701Z,51.10
2022-08-11T04:13:10.633Z,51.20
2022-08-11T04:16:12.492Z,51.30
2022-08-11T04:19:14.481Z,51.30
2022-08-11T04:22:25.967Z,51.00
2022-08-11T04:25:15.713Z,50.70
2022-08-11T04:31:00.704Z,50.70
2022-08-11T04:33:44.829Z,51.10
2022-08-11T04:37:13.089Z,51.00
2022-08-11T04:40:00.855Z,51.10
2022-08-11T04:43:21.984Z,51.10
2022-08-11T04:46:21.600Z,51.10
2022-08-11T04:49:34.104Z,50.70
2022-08-11T04:52:37.464Z,51.20
2022-08-11T04:55:51.669Z,51.30
2022-08-11T04:58:44.208Z,51.30
2022-08-11T05:01:44.263Z,51.30
2022-08-11T05:05:09.484Z,51.30
2022-08-11T05:08:16.985Z,51.50
2022-08-11T05:11:08.898Z,51.70
2022-08-11T05:14:03.677Z,50.90
2022-08-11T05:16:54.002Z,51.70
2022-08-11T05:19:40.597Z,51.50
2022-08-11T05:22:29.557Z,51.60
2022-08-11T05:26:43.528Z,51.70
2022-08-11T05:28:31.798Z,51.80
2022-08-11T05:31:23.309Z,51.80
2022-08-11T05:34:15.561Z,52.00
2022-08-11T05:36:48.237Z,50.10
2022-08-11T05:39:40.416Z,51.60
2022-08-11T05:42:30.730Z,51.60
2022-08-11T05:45:23.675Z,52.20
2022-08-11T05:48:11.367Z,52.10
2022-08-11T05:51:10.353Z,52.10
2022-08-11T05:57:01.077Z,52.40
2022-08-11T05:59:30.815Z,52.40
2022-08-11T06:02:03.346Z,52.30
2022-08-11T06:04:32.403Z,51.80
2022-08-11T06:07:04.130Z,52.00
2022-08-11T06:09:36.999Z,52.00
2022-08-11T06:12:08.633Z,52.50
2022-08-11T06:14:46.195Z,52.50
2022-08-11T06:17:15.795Z,52.40
2022-08-11T06:19:49.200Z,52.20
2022-08-11T06:22:23.247Z,52.20
2022-08-11T06:24:58.814Z,53.30
2022-08-11T06:27:28.660Z,52.10
2022-08-11T06:29:59.399Z,52.40
2022-08-11T06:32:30.247Z,52.40
2022-08-11T06:35:17.659Z,52.10
2022-08-11T06:38:05.568Z,51.90
2022-08-11T06:40:40.191Z,52.20
2022-08-11T06:43:17.919Z,52.10
2022-08-11T06:45:56.547Z,51.50
2022-08-11T06:48:27.048Z,51.40
2022-08-11T06:51:12.700Z,51.50
2022-08-11T06:54:03.872Z,52.10
2022-08-11T06:57:12.472Z,52.10
2022-08-11T07:00:00.081Z,51.70
2022-08-11T07:02:35.299Z,51.60
2022-08-11T07:05:08.476Z,51.20
2022-08-11T07:08:39.542Z,49.30
2022-08-11T07:11:49.783Z,49.70
2022-08-11T07:14:42.978Z,48.90
2022-08-11T07:17:17.644Z,47.90
2022-08-11T07:20:12.795Z,43.10
2022-08-11T07:23:02.322Z,39.00
2022-08-11T07:25:51.002Z,35.90
2022-08-11T07:28:44.493Z,34.20
2022-08-11T07:31:18.089Z,32.80
2022-08-11T07:34:07.588Z,32.00
2022-08-11T07:36:42.226Z,31.20
2022-08-11T07:39:18.878Z,31.10
2022-08-11T07:41:48.355Z,31.00
2022-08-11T07:44:19.124Z,30.30
2022-08-11T07:47:07.266Z,30.50
2022-08-11T07:49:55.892Z,30.30
2022-08-11T07:52:43.098Z,30.10
2022-08-11T07:55:16.505Z,31.20
2022-08-11T07:58:16.018Z,30.70
2022-08-11T08:01:10.719Z,31.20
2022-08-11T08:04:04.092Z,31.80
2022-08-11T08:06:52.324Z,34.20
2022-08-11T08:09:40.632Z,34.30
2022-08-11T08:12:27.996Z,33.30
2022-08-11T08:15:14.673Z,32.40
2022-08-11T08:18:09.839Z,33.50
2022-08-11T08:20:47.412Z,33.60
2022-08-11T08:23:18.651Z,32.80
2022-08-11T08:25:48.213Z,32.40
2022-08-11T08:28:18.573Z,33.90
2022-08-11T08:30:51.730Z,33.90
2022-08-11T08:33:29.074Z,34.00
2022-08-11T08:36:13.147Z,34.10
2022-08-11T08:38:42.796Z,34.30
2022-08-11T08:41:16.577Z,34.10
2022-08-11T08:43:49.580Z,34.70
2022-08-11T08:46:24.305Z,35.40
2022-08-11T08:48:58.614Z,35.40
2022-08-11T08:52:01.217Z,35.80
2022-08-11T08:54:37.676Z,35.90
2022-08-11T08:57:15.279Z,35.10
2022-08-11T08:59:49.521Z,35.00
2022-08-11T09:02:33.558Z,36.30
2022-08-11T09:05:05.679Z,35.20
2022-08-11T09:07:42.508Z,35.70
2022-08-11T09:10:12.779Z,36.10
2022-08-11T09:12:44.513Z,35.50
2022-08-11T09:15:19.616Z,35.20
2022-08-11T09:17:50.039Z,35.30
2022-08-11T09:20:25.213Z,34.40
2022-08-11T09:26:22.870Z,36.40
2022-08-11T09:29:00.931Z,36.90
2022-08-11T09:31:40.340Z,36.80
2022-08-11T09:34:10.597Z,36.60
2022-08-11T09:37:00.259Z,36.90
2022-08-11T09:39:48.344Z,37.40
2022-08-11T09:42:23.738Z,37.40
2022-08-11T09:44:54.160Z,38.20
2022-08-11T09:47:25.410Z,37.80
2022-08-11T09:50:00.821Z,37.50
2022-08-11T09:52:33.707Z,38.50
2022-08-11T09:55:11.231Z,37.40
2022-08-11T09:57:58.492Z,37.60
2022-08-11T10:00:31.561Z,36.50
2022-08-11T10:03:02.636Z,36.30
2022-08-11T10:05:50.827Z,36.50
2022-08-11T10:08:24.424Z,33.80
2022-08-11T10:20:05.364Z,33.70
2022-08-11T10:22:54.180Z,34.30
2022-08-11T10:25:41.442Z,33.60
2022-08-11T10:28:28.865Z,33.10
2022-08-11T10:31:18.026Z,33.70
2022-08-11T10:34:00.683Z,33.80
2022-08-11T10:36:31.184Z,33.90
2022-08-11T10:39:00.817Z,33.80
2022-08-11T10:44:52.007Z,34.20
2022-08-11T10:47:35.362Z,33.20
2022-08-11T10:50:22.696Z,32.70
2022-08-11T10:53:10.550Z,31.70
2022-08-11T10:55:58.774Z,32.40
2022-08-11T10:58:49.396Z,33.10
2022-08-11T11:01:24.008Z,32.70
2022-08-11T11:03:58.164Z,32.50
2022-08-11T11:06:35.573Z,32.70
2022-08-11T11:09:08.189Z,32.80
2022-08-11T11:11:57.260Z,32.10
2022-08-11T11:14:58.220Z,31.90
2022-08-11T11:17:48.045Z,33.00
2022-08-11T11:20:37.038Z,32.90
2022-08-11T11:23:13.678Z,33.20
2022-08-11T11:26:33.341Z,33.30
2022-08-11T11:32:30.403Z,31.70
2022-08-11T11:35:21.470Z,31.80
2022-08-11T11:38:03.997Z,31.50
2022-08-11T11:40:34.904Z,32.00
2022-08-11T11:45:32.476Z,32.70
2022-08-11T11:48:03.618Z,33.40
2022-08-11T11:50:36.080Z,33.80
2022-08-11T11:53:07.578Z,33.90
2022-08-11T11:55:36.403Z,33.40
2022-08-11T11:58:23.851Z,34.80
2022-08-11T12:01:11.772Z,35.10
2022-08-11T12:03:42.317Z,34.30
2022-08-11T12:06:14.275Z,33.40
2022-08-11T12:08:44.544Z,33.80
2022-08-11T12:11:31.421Z,33.80
2022-08-11T12:14:03.499Z,33.40
2022-08-11T12:16:40.870Z,33.10
2022-08-11T12:19:14.759Z,33.50
2022-08-11T12:21:59.437Z,33.40
2022-08-11T12:27:25.104Z,32.40
2022-08-11T12:29:57.264Z,34.10
2022-08-11T12:32:29.367Z,33.30
2022-08-11T12:34:59.855Z,33.20
2022-08-11T12:37:32.743Z,33.60
2022-08-11T12:40:43.474Z,34.40
2022-08-11T12:43:37.964Z,34.70
2022-08-11T12:46:10.396Z,35.30
2022-08-11T12:49:03.072Z,34.20
2022-08-11T12:52:11.287Z,34.50
2022-08-11T12:54:52.055Z,33.90
2022-08-11T12:57:51.284Z,34.70
2022-08-11T13:00:37.964Z,34.20
2022-08-11T13:03:26.801Z,34.60
2022-08-11T13:05:58.139Z,34.10
2022-08-11T13:08:29.967Z,34.50
2022-08-11T13:11:19.301Z,33.50
2022-08-11T13:13:57.446Z,34.20
2022-08-11T13:16:30.012Z,33.80
2022-08-11T13:19:01.105Z,34.40
2022-08-11T13:21:30.143Z,33.80
2022-08-11T13:24:03.059Z,33.80
2022-08-11T13:26:47.579Z,33.90
2022-08-11T13:29:25.785Z,33.80
2022-08-11T13:31:56.561Z,33.30
2022-08-11T13:34:28.984Z,33.30
2022-08-11T13:37:00.400Z,31.80
2022-08-11T13:39:32.660Z,32.30
2022-08-11T13:42:03.727Z,31.70
2022-08-11T13:44:36.009Z,31.60
2022-08-11T13:47:10.616Z,31.70
2022-08-11T13:49:41.346Z,31.10
2022-08-11T13:52:30.967Z,31.10
2022-08-11T13:55:01.780Z,30.80
2022-08-11T13:58:08.725Z,30.80
2022-08-11T14:00:25.000Z,30.80
2022-08-11T14:02:59.501Z,31.70
2022-08-11T14:05:31.102Z,30.90
2022-08-11T14:08:03.461Z,30.90
2022-08-11T14:10:38.511Z,31.00
2022-08-11T14:13:29.752Z,30.80
2022-08-11T14:16:18.605Z,31.40
2022-08-11T14:18:49.112Z,30.70
2022-08-11T14:21:37.477Z,30.00
2022-08-11T14:24:06.709Z,30.80
2022-08-11T14:26:39.191Z,30.80
2022-08-11T14:29:14.505Z,31.50
2022-08-11T14:31:48.442Z,31.20
2022-08-11T14:34:21.845Z,30.70
2022-08-11T14:36:53.698Z,32.30
2022-08-11T14:39:25.339Z,31.70
2022-08-11T14:42:15.275Z,31.80
2022-08-11T14:45:18.249Z,31.00
2022-08-11T14:50:35.523Z,30.80
2022-08-11T14:53:06.144Z,32.20
2022-08-11T14:55:59.675Z,32.00
2022-08-11T14:58:34.050Z,32.60
2022-08-11T15:01:23.992Z,32.40
2022-08-11T15:04:35.144Z,32.90
2022-08-11T15:06:41.305Z,31.60
2022-08-11T15:09:10.426Z,31.50
2022-08-11T15:11:56.457Z,30.80
2022-08-11T15:14:41.502Z,32.50
2022-08-11T15:17:13.043Z,31.90
2022-08-11T15:20:08.563Z,31.20
2022-08-11T15:22:54.342Z,31.30
2022-08-11T15:25:24.668Z,31.70
2022-08-11T15:28:13.890Z,31.80
2022-08-11T15:31:02.715Z,31.40
2022-08-11T15:33:50.994Z,31.90
2022-08-11T15:36:45.940Z,32.70
2022-08-11T15:39:21.246Z,31.90
2022-08-11T15:42:12.986Z,31.90
2022-08-11T15:45:03.707Z,32.70
2022-08-11T15:47:41.762Z,32.70
2022-08-11T15:50:34.099Z,32.20
2022-08-11T15:53:07.826Z,32.60
2022-08-11T15:55:39.021Z,32.80
2022-08-11T15:58:28.532Z,32.70
2022-08-11T16:01:14.558Z,33.60
2022-08-11T16:04:09.546Z,32.70
2022-08-11T16:06:44.070Z,33.20
2022-08-11T16:09:22.126Z,32.70
2022-08-11T16:11:53.149Z,33.90
2022-08-11T16:14:40.056Z,33.80
2022-08-11T16:17:13.129Z,34.10
2022-08-11T16:19:45.858Z,31.90
2022-08-11T16:22:20.097Z,32.40
2022-08-11T16:27:04.128Z,31.30
2022-08-11T16:27:43.601Z,31.20
2022-08-11T16:32:49.278Z,31.70
2022-08-11T16:39:00.322Z,31.90
2022-08-11T16:41:50.527Z,32.20
2022-08-11T16:44:38.453Z,31.70
2022-08-11T16:47:09.981Z,31.30
2022-08-11T16:49:43.008Z,31.70
2022-08-11T16:52:24.707Z,31.00
2022-08-11T16:57:44.327Z,30.90
2022-08-11T17:00:15.442Z,30.90
2022-08-11T17:03:04.661Z,32.00
2022-08-11T17:05:54.590Z,31.20
2022-08-11T17:08:56.694Z,31.70
2022-08-11T17:11:46.304Z,31.20
2022-08-11T17:14:36.197Z,31.00
2022-08-11T17:17:11.151Z,31.60
2022-08-11T17:20:40.881Z,31.70
2022-08-11T17:22:52.623Z,31.00
2022-08-11T17:25:21.757Z,30.60
2022-08-11T17:27:53.812Z,30.90
2022-08-11T17:33:10.753Z,29.80
2022-08-11T17:35:44.644Z,31.80
2022-08-11T17:38:16.654Z,31.20
2022-08-11T17:41:02.996Z,31.90
2022-08-11T17:43:51.711Z,30.70
2022-08-11T17:46:40.797Z,30.80
2022-08-11T17:49:11.385Z,32.40
2022-08-11T17:51:59.985Z,31.10
2022-08-11T17:54:46.854Z,31.10
2022-08-11T17:57:34.630Z,31.10
2022-08-11T18:00:08.025Z,31.10
2022-08-11T18:02:56.529Z,31.80
2022-08-11T18:05:28.977Z,31.80
2022-08-11T18:08:17.413Z,31.90
2022-08-11T18:11:06.275Z,31.70
2022-08-11T18:13:55.886Z,31.80
2022-08-11T18:16:44.833Z,31.90
2022-08-11T18:19:31.001Z,32.10
2022-08-11T18:22:22.865Z,32.20
2022-08-11T18:25:12.236Z,32.20
2022-08-11T18:28:04.618Z,32.50
2022-08-11T18:31:03.156Z,34.10
2022-08-11T18:34:07.033Z,34.10
2022-08-11T18:36:56.548Z,34.00
2022-08-11T18:39:43.755Z,34.20
2022-08-11T18:42:43.756Z,35.90
2022-08-11T18:45:43.857Z,35.80
2022-08-11T18:48:37.475Z,36.60
2022-08-11T18:51:30.686Z,36.70
2022-08-11T18:54:28.707Z,37.00
2022-08-11T18:57:18.953Z,37.80
2022-08-11T19:00:08.125Z,37.80
2022-08-11T19:02:57.326Z,38.40
2022-08-11T19:06:31.980Z,39.00
2022-08-11T19:08:58.491Z,38.50
2022-08-11T19:11:45.385Z,39.00
2022-08-11T19:14:32.239Z,38.70
2022-08-11T19:17:44.370Z,39.30
2022-08-11T19:20:32.030Z,39.40
2022-08-11T19:23:21.702Z,39.70
2022-08-11T19:26:09.555Z,39.80
2022-08-11T19:28:57.575Z,40.00
2022-08-11T19:31:45.312Z,39.90
2022-08-11T19:34:33.502Z,40.30
2022-08-11T19:37:24.341Z,40.90
2022-08-11T19:40:12.267Z,41.50
2022-08-11T19:43:18.571Z,41.90
2022-08-11T19:46:11.507Z,41.70
2022-08-11T19:48:59.651Z,40.50
2022-08-11T19:51:47.239Z,41.20
2022-08-11T19:54:44.702Z,41.00
2022-08-11T19:57:38.694Z,40.60
2022-08-11T20:03:32.129Z,39.80
2022-08-11T20:06:22.812Z,38.60
2022-08-11T20:09:14.860Z,38.60
2022-08-11T20:12:04.027Z,39.00
2022-08-11T20:14:53.334Z,38.70
2022-08-11T20:17:46.156Z,39.20
2022-08-11T20:20:33.790Z,39.20
2022-08-11T20:23:24.544Z,38.90
2022-08-11T20:26:30.259Z,39.00
2022-08-11T20:29:18.989Z,39.50
2022-08-11T20:32:09.272Z,38.90
2022-08-11T20:35:00.918Z,38.80
2022-08-11T20:37:51.005Z,39.50
2022-08-11T20:40:40.487Z,39.00
2022-08-11T20:44:08.405Z,39.00
2022-08-11T20:46:38.761Z,39.20
2022-08-11T20:49:42.314Z,39.10
2022-08-11T20:52:38.521Z,39.20
2022-08-11T20:55:51.903Z,39.70
2022-08-11T20:59:17.894Z,39.10
2022-08-11T21:02:03.127Z,39.30
2022-08-11T21:04:55.030Z,39.90
2022-08-11T21:07:44.795Z,39.40
2022-08-11T21:10:46.924Z,39.40
2022-08-11T21:13:36.976Z,39.50
2022-08-11T21:16:26.543Z,39.50
2022-08-11T21:19:18.202Z,39.60
2022-08-11T21:22:05.562Z,39.70
2022-08-11T21:24:55.786Z,39.90
2022-08-11T21:27:44.562Z,39.80
2022-08-11T21:30:31.079Z,39.80
2022-08-11T21:33:19.604Z,40.00
2022-08-11T21:36:05.382Z,39.90
2022-08-11T21:47:43.291Z,40.40
2022-08-11T21:50:30.490Z,40.90
2022-08-11T21:53:19.696Z,40.50
2022-08-11T21:56:08.431Z,40.70
2022-08-11T21:58:55.729Z,41.20
2022-08-11T22:01:42.498Z,40.90
2022-08-11T22:04:28.549Z,40.80
2022-08-11T22:07:22.335Z,40.80
2022-08-11T22:10:40.341Z,40.90
2022-08-11T22:13:14.612Z,41.40
2022-08-11T22:16:02.296Z,41.30
2022-08-11T22:18:51.445Z,41.80
2022-08-11T22:22:02.742Z,41.90
2022-08-11T22:24:46.393Z,41.70
2022-08-11T22:27:34.828Z,42.00
2022-08-11T22:33:08.702Z,42.10
2022-08-11T22:35:56.862Z,42.40
2022-08-11T22:38:43.629Z,42.40
2022-08-11T22:41:31.995Z,42.60
2022-08-11T22:47:05.980Z,42.70
2022-08-11T22:49:57.435Z,42.70
2022-08-11T22:52:45.077Z,43.30
2022-08-11T22:55:31.858Z,42.50
2022-08-11T22:58:48.693Z,43.00
2022-08-11T23:01:36.050Z,42.10
2022-08-11T23:04:23.387Z,41.90
2022-08-11T23:07:12.028Z,41.60
2022-08-11T23:09:58.894Z,41.80
2022-08-11T23:12:47.041Z,41.80
2022-08-11T23:15:33.566Z,41.60
2022-08-11T23:18:25.166Z,41.80
2022-08-11T23:21:11.224Z,41.80
2022-08-11T23:23:59.235Z,41.80
2022-08-11T23:26:48.161Z,42.00
2022-08-11T23:29:34.855Z,42.00
2022-08-11T23:32:21.846Z,42.00
2022-08-11T23:35:38.679Z,42.10
2022-08-11T23:38:19.814Z,42.20
2022-08-11T23:41:07.606Z,42.30
2022-08-11T23:43:56.951Z,42.30
2022-08-11T23:46:45.265Z,42.40
2022-08-11T23:49:31.734Z,42.60
2022-08-11T23:52:21.833Z,42.70
2022-08-11T23:55:08.952Z,42.80
